sensor_id;sensor_type;location;lat;lon;timestamp;temperature;humidity
9987;DHT22;5033;46.310;11.214;2022-09-12T00:00:13;16.10;99.90
9987;DHT22;5033;46.310;11.214;2022-09-12T00:02:42;16.10;99.90
9987;DHT22;5033;46.310;11.214;2022-09-12T00:05:09;16.10;99.90
9987;DHT22;5033;46.310;11.214;2022-09-12T00:07:36;16.10;99.90
9987;DHT22;5033;46.310;11.214;2022-09-12T00:10:04;16.10;99.90
9987;DHT22;5033;46.310;11.214;2022-09-12T00:12:32;16.10;99.90
9987;DHT22;5033;46.310;11.214;2022-09-12T00:14:59;16.00;99.90
9987;DHT22;5033;46.310;11.214;2022-09-12T00:17:26;15.90;99.90
9987;DHT22;5033;46.310;11.214;2022-09-12T00:19:54;15.90;99.90
9987;DHT22;5033;46.310;11.214;2022-09-12T00:22:21;15.80;99.90
9987;DHT22;5033;46.310;11.214;2022-09-12T00:24:49;15.80;99.90
9987;DHT22;5033;46.310;11.214;2022-09-12T00:27:16;15.90;99.90
9987;DHT22;5033;46.310;11.214;2022-09-12T00:29:43;15.90;99.90
9987;DHT22;5033;46.310;11.214;2022-09-12T00:32:10;15.80;99.90
9987;DHT22;5033;46.310;11.214;2022-09-12T00:34:37;15.80;99.90
9987;DHT22;5033;46.310;11.214;2022-09-12T00:37:05;15.80;99.90
9987;DHT22;5033;46.310;11.214;2022-09-12T00:39:32;15.80;99.90
9987;DHT22;5033;46.310;11.214;2022-09-12T00:41:59;15.70;99.90
9987;DHT22;5033;46.310;11.214;2022-09-12T00:44:45;15.70;99.90
9987;DHT22;5033;46.310;11.214;2022-09-12T00:47:17;15.70;99.90
9987;DHT22;5033;46.310;11.214;2022-09-12T00:49:47;15.60;99.90
9987;DHT22;5033;46.310;11.214;2022-09-12T00:52:20;15.60;99.90
9987;DHT22;5033;46.310;11.214;2022-09-12T00:54:51;15.60;99.90
9987;DHT22;5033;46.310;11.214;2022-09-12T00:57:21;15.60;99.90
9987;DHT22;5033;46.310;11.214;2022-09-12T00:59:52;15.60;99.90
9987;DHT22;5033;46.310;11.214;2022-09-12T01:02:21;15.60;99.90
9987;DHT22;5033;46.310;11.214;2022-09-12T01:04:49;15.50;99.90
9987;DHT22;5033;46.310;11.214;2022-09-12T01:07:18;15.50;99.90
9987;DHT22;5033;46.310;11.214;2022-09-12T01:09:45;15.50;99.90
9987;DHT22;5033;46.310;11.214;2022-09-12T01:12:14;15.50;99.90
9987;DHT22;5033;46.310;11.214;2022-09-12T01:14:41;15.50;99.90
9987;DHT22;5033;46.310;11.214;2022-09-12T01:17:11;15.40;99.90
9987;DHT22;5033;46.310;11.214;2022-09-12T01:19:59;15.40;99.90
9987;DHT22;5033;46.310;11.214;2022-09-12T01:22:48;15.30;99.90
9987;DHT22;5033;46.310;11.214;2022-09-12T01:25:27;15.30;99.90
9987;DHT22;5033;46.310;11.214;2022-09-12T01:28:11;15.30;99.90
9987;DHT22;5033;46.310;11.214;2022-09-12T01:30:50;15.20;99.90
9987;DHT22;5033;46.310;11.214;2022-09-12T01:33:33;15.20;99.90
9987;DHT22;5033;46.310;11.214;2022-09-12T01:36:24;15.10;99.90
9987;DHT22;5033;46.310;11.214;2022-09-12T01:38:55;15.10;99.90
9987;DHT22;5033;46.310;11.214;2022-09-12T01:41:29;15.10;99.90
9987;DHT22;5033;46.310;11.214;2022-09-12T01:44:02;15.10;99.90
9987;DHT22;5033;46.310;11.214;2022-09-12T01:46:37;15.10;99.90
9987;DHT22;5033;46.310;11.214;2022-09-12T01:49:13;15.00;99.90
9987;DHT22;5033;46.310;11.214;2022-09-12T01:51:45;14.90;99.90
9987;DHT22;5033;46.310;11.214;2022-09-12T01:54:18;14.80;99.90
9987;DHT22;5033;46.310;11.214;2022-09-12T01:56:48;14.60;99.90
9987;DHT22;5033;46.310;11.214;2022-09-12T01:59:21;14.60;99.90
9987;DHT22;5033;46.310;11.214;2022-09-12T02:01:54;14.60;99.90
9987;DHT22;5033;46.310;11.214;2022-09-12T02:04:26;14.60;99.90
9987;DHT22;5033;46.310;11.214;2022-09-12T02:06:57;14.70;99.90
9987;DHT22;5033;46.310;11.214;2022-09-12T02:09:34;14.70;99.90
9987;DHT22;5033;46.310;11.214;2022-09-12T02:12:03;14.70;99.90
9987;DHT22;5033;46.310;11.214;2022-09-12T02:14:35;14.70;99.90
9987;DHT22;5033;46.310;11.214;2022-09-12T02:17:07;14.70;99.90
9987;DHT22;5033;46.310;11.214;2022-09-12T02:19:40;14.70;99.90
9987;DHT22;5033;46.310;11.214;2022-09-12T02:22:12;14.60;99.90
9987;DHT22;5033;46.310;11.214;2022-09-12T02:24:43;14.60;99.90
9987;DHT22;5033;46.310;11.214;2022-09-12T02:27:14;14.60;99.90
9987;DHT22;5033;46.310;11.214;2022-09-12T02:29:43;14.60;99.90
9987;DHT22;5033;46.310;11.214;2022-09-12T02:32:20;14.60;99.90
9987;DHT22;5033;46.310;11.214;2022-09-12T02:34:55;14.60;99.90
9987;DHT22;5033;46.310;11.214;2022-09-12T02:37:33;14.60;99.90
9987;DHT22;5033;46.310;11.214;2022-09-12T02:40:04;14.60;99.90
9987;DHT22;5033;46.310;11.214;2022-09-12T02:42:33;14.50;99.90
9987;DHT22;5033;46.310;11.214;2022-09-12T02:45:01;14.50;99.90
9987;DHT22;5033;46.310;11.214;2022-09-12T02:47:33;14.40;99.90
9987;DHT22;5033;46.310;11.214;2022-09-12T02:50:03;14.40;99.90
9987;DHT22;5033;46.310;11.214;2022-09-12T02:52:33;14.40;99.90
9987;DHT22;5033;46.310;11.214;2022-09-12T02:55:01;14.40;99.90
9987;DHT22;5033;46.310;11.214;2022-09-12T02:57:29;14.30;99.90
9987;DHT22;5033;46.310;11.214;2022-09-12T02:59:59;14.30;99.90
9987;DHT22;5033;46.310;11.214;2022-09-12T03:02:34;14.30;99.90
9987;DHT22;5033;46.310;11.214;2022-09-12T03:05:15;14.40;99.90
9987;DHT22;5033;46.310;11.214;2022-09-12T03:08:06;14.40;99.90
9987;DHT22;5033;46.310;11.214;2022-09-12T03:10:41;14.50;99.90
9987;DHT22;5033;46.310;11.214;2022-09-12T03:13:22;14.60;99.90
9987;DHT22;5033;46.310;11.214;2022-09-12T03:16:01;14.60;99.90
9987;DHT22;5033;46.310;11.214;2022-09-12T03:18:44;14.60;99.90
9987;DHT22;5033;46.310;11.214;2022-09-12T03:21:21;14.60;99.90
9987;DHT22;5033;46.310;11.214;2022-09-12T03:23:59;14.60;99.90
9987;DHT22;5033;46.310;11.214;2022-09-12T03:26:34;14.60;99.90
9987;DHT22;5033;46.310;11.214;2022-09-12T03:29:05;14.70;99.90
9987;DHT22;5033;46.310;11.214;2022-09-12T03:31:33;14.70;99.90
9987;DHT22;5033;46.310;11.214;2022-09-12T03:34:01;14.70;99.90
9987;DHT22;5033;46.310;11.214;2022-09-12T03:36:29;14.70;99.90
9987;DHT22;5033;46.310;11.214;2022-09-12T03:38:56;14.60;99.90
9987;DHT22;5033;46.310;11.214;2022-09-12T03:41:23;14.60;99.90
9987;DHT22;5033;46.310;11.214;2022-09-12T03:43:51;14.60;99.90
9987;DHT22;5033;46.310;11.214;2022-09-12T03:46:18;14.50;99.90
9987;DHT22;5033;46.310;11.214;2022-09-12T03:48:45;14.50;99.90
9987;DHT22;5033;46.310;11.214;2022-09-12T03:51:13;14.50;99.90
9987;DHT22;5033;46.310;11.214;2022-09-12T03:53:40;14.50;99.90
9987;DHT22;5033;46.310;11.214;2022-09-12T03:56:09;14.50;99.90
9987;DHT22;5033;46.310;11.214;2022-09-12T03:58:37;14.50;99.90
9987;DHT22;5033;46.310;11.214;2022-09-12T04:01:07;14.50;99.90
9987;DHT22;5033;46.310;11.214;2022-09-12T04:03:38;14.50;99.90
9987;DHT22;5033;46.310;11.214;2022-09-12T04:06:06;14.50;99.90
9987;DHT22;5033;46.310;11.214;2022-09-12T04:08:35;14.50;99.90
9987;DHT22;5033;46.310;11.214;2022-09-12T04:11:03;14.40;99.90
9987;DHT22;5033;46.310;11.214;2022-09-12T04:13:30;14.30;99.90
9987;DHT22;5033;46.310;11.214;2022-09-12T04:15:58;14.30;99.90
9987;DHT22;5033;46.310;11.214;2022-09-12T04:18:26;14.30;99.90
9987;DHT22;5033;46.310;11.214;2022-09-12T04:20:53;14.30;99.90
9987;DHT22;5033;46.310;11.214;2022-09-12T04:23:20;14.30;99.90
9987;DHT22;5033;46.310;11.214;2022-09-12T04:25:54;14.30;99.90
9987;DHT22;5033;46.310;11.214;2022-09-12T04:28:22;14.20;99.90
9987;DHT22;5033;46.310;11.214;2022-09-12T04:30:49;14.30;99.90
9987;DHT22;5033;46.310;11.214;2022-09-12T04:33:16;14.30;99.90
9987;DHT22;5033;46.310;11.214;2022-09-12T04:35:44;14.20;99.90
9987;DHT22;5033;46.310;11.214;2022-09-12T04:38:11;14.20;99.90
9987;DHT22;5033;46.310;11.214;2022-09-12T04:40:38;14.20;99.90
9987;DHT22;5033;46.310;11.214;2022-09-12T04:43:06;14.20;99.90
9987;DHT22;5033;46.310;11.214;2022-09-12T04:45:34;14.20;99.90
9987;DHT22;5033;46.310;11.214;2022-09-12T04:48:01;14.20;99.90
9987;DHT22;5033;46.310;11.214;2022-09-12T04:50:28;14.20;99.90
9987;DHT22;5033;46.310;11.214;2022-09-12T04:52:55;14.20;99.90
9987;DHT22;5033;46.310;11.214;2022-09-12T04:55:22;14.20;99.90
9987;DHT22;5033;46.310;11.214;2022-09-12T04:57:50;14.10;99.90
9987;DHT22;5033;46.310;11.214;2022-09-12T05:00:20;14.10;99.90
9987;DHT22;5033;46.310;11.214;2022-09-12T05:02:47;14.10;99.90
9987;DHT22;5033;46.310;11.214;2022-09-12T05:05:16;14.10;99.90
9987;DHT22;5033;46.310;11.214;2022-09-12T05:07:43;14.10;99.90
9987;DHT22;5033;46.310;11.214;2022-09-12T05:10:10;14.00;99.90
9987;DHT22;5033;46.310;11.214;2022-09-12T05:12:38;14.00;99.90
9987;DHT22;5033;46.310;11.214;2022-09-12T05:15:06;14.00;99.90
9987;DHT22;5033;46.310;11.214;2022-09-12T05:17:35;14.00;99.90
9987;DHT22;5033;46.310;11.214;2022-09-12T05:20:02;13.90;99.90
9987;DHT22;5033;46.310;11.214;2022-09-12T05:22:29;13.80;99.90
9987;DHT22;5033;46.310;11.214;2022-09-12T05:24:56;13.80;99.90
9987;DHT22;5033;46.310;11.214;2022-09-12T05:27:23;13.90;99.90
9987;DHT22;5033;46.310;11.214;2022-09-12T05:29:50;14.20;99.90
9987;DHT22;5033;46.310;11.214;2022-09-12T05:32:18;14.60;99.90
9987;DHT22;5033;46.310;11.214;2022-09-12T05:34:46;15.10;99.90
9987;DHT22;5033;46.310;11.214;2022-09-12T05:37:14;15.50;99.90
9987;DHT22;5033;46.310;11.214;2022-09-12T05:39:41;15.70;99.90
9987;DHT22;5033;46.310;11.214;2022-09-12T05:42:08;15.80;99.90
9987;DHT22;5033;46.310;11.214;2022-09-12T05:44:36;16.10;99.90
9987;DHT22;5033;46.310;11.214;2022-09-12T05:47:04;16.20;99.90
9987;DHT22;5033;46.310;11.214;2022-09-12T05:49:31;16.50;99.90
9987;DHT22;5033;46.310;11.214;2022-09-12T05:51:59;16.60;99.90
9987;DHT22;5033;46.310;11.214;2022-09-12T05:54:27;16.70;99.90
9987;DHT22;5033;46.310;11.214;2022-09-12T05:56:55;16.90;99.90
9987;DHT22;5033;46.310;11.214;2022-09-12T05:59:22;17.20;99.90
9987;DHT22;5033;46.310;11.214;2022-09-12T06:01:49;17.40;99.90
9987;DHT22;5033;46.310;11.214;2022-09-12T06:04:17;17.40;99.90
9987;DHT22;5033;46.310;11.214;2022-09-12T06:06:48;17.50;99.90
9987;DHT22;5033;46.310;11.214;2022-09-12T06:09:18;17.80;99.90
9987;DHT22;5033;46.310;11.214;2022-09-12T06:11:45;18.10;99.90
9987;DHT22;5033;46.310;11.214;2022-09-12T06:14:14;18.30;99.90
9987;DHT22;5033;46.310;11.214;2022-09-12T06:16:42;18.60;99.90
9987;DHT22;5033;46.310;11.214;2022-09-12T06:19:13;18.80;99.90
9987;DHT22;5033;46.310;11.214;2022-09-12T06:21:40;19.10;99.90
9987;DHT22;5033;46.310;11.214;2022-09-12T06:24:08;19.20;99.90
9987;DHT22;5033;46.310;11.214;2022-09-12T06:26:37;19.10;99.90
9987;DHT22;5033;46.310;11.214;2022-09-12T06:29:04;19.00;99.90
9987;DHT22;5033;46.310;11.214;2022-09-12T06:31:34;18.70;99.90
9987;DHT22;5033;46.310;11.214;2022-09-12T06:34:03;18.70;99.90
9987;DHT22;5033;46.310;11.214;2022-09-12T06:36:32;18.60;99.90
9987;DHT22;5033;46.310;11.214;2022-09-12T06:39:02;18.50;99.90
9987;DHT22;5033;46.310;11.214;2022-09-12T06:41:30;18.60;99.90
9987;DHT22;5033;46.310;11.214;2022-09-12T06:44:01;18.80;99.90
9987;DHT22;5033;46.310;11.214;2022-09-12T06:46:31;19.00;99.90
9987;DHT22;5033;46.310;11.214;2022-09-12T06:48:59;19.20;99.90
9987;DHT22;5033;46.310;11.214;2022-09-12T06:51:27;19.40;99.90
9987;DHT22;5033;46.310;11.214;2022-09-12T06:53:55;19.50;99.90
9987;DHT22;5033;46.310;11.214;2022-09-12T06:56:24;19.50;99.90
9987;DHT22;5033;46.310;11.214;2022-09-12T06:58:54;19.60;99.90
9987;DHT22;5033;46.310;11.214;2022-09-12T07:01:24;19.60;99.90
9987;DHT22;5033;46.310;11.214;2022-09-12T07:03:52;19.40;99.90
9987;DHT22;5033;46.310;11.214;2022-09-12T07:06:23;19.40;99.90
9987;DHT22;5033;46.310;11.214;2022-09-12T07:08:55;19.40;99.90
9987;DHT22;5033;46.310;11.214;2022-09-12T07:11:24;19.50;99.90
9987;DHT22;5033;46.310;11.214;2022-09-12T07:13:53;19.60;99.90
9987;DHT22;5033;46.310;11.214;2022-09-12T07:16:22;19.80;99.90
9987;DHT22;5033;46.310;11.214;2022-09-12T07:18:50;20.00;99.90
9987;DHT22;5033;46.310;11.214;2022-09-12T07:21:18;20.10;99.90
9987;DHT22;5033;46.310;11.214;2022-09-12T07:23:45;20.20;99.90
9987;DHT22;5033;46.310;11.214;2022-09-12T07:26:14;20.30;99.90
9987;DHT22;5033;46.310;11.214;2022-09-12T07:28:42;20.30;99.90
9987;DHT22;5033;46.310;11.214;2022-09-12T07:31:11;20.50;99.90
9987;DHT22;5033;46.310;11.214;2022-09-12T07:33:40;20.50;99.90
9987;DHT22;5033;46.310;11.214;2022-09-12T07:36:10;20.40;99.90
9987;DHT22;5033;46.310;11.214;2022-09-12T07:38:38;20.30;99.90
9987;DHT22;5033;46.310;11.214;2022-09-12T07:41:17;20.30;99.90
9987;DHT22;5033;46.310;11.214;2022-09-12T07:43:45;20.30;99.90
9987;DHT22;5033;46.310;11.214;2022-09-12T07:46:13;20.30;99.90
9987;DHT22;5033;46.310;11.214;2022-09-12T07:48:42;20.40;99.90
9987;DHT22;5033;46.310;11.214;2022-09-12T07:51:11;20.50;99.90
9987;DHT22;5033;46.310;11.214;2022-09-12T07:53:39;20.50;99.90
9987;DHT22;5033;46.310;11.214;2022-09-12T07:56:09;20.80;99.90
9987;DHT22;5033;46.310;11.214;2022-09-12T07:58:38;21.10;99.90
9987;DHT22;5033;46.310;11.214;2022-09-12T08:01:07;21.50;99.90
9987;DHT22;5033;46.310;11.214;2022-09-12T08:03:34;21.40;99.90
9987;DHT22;5033;46.310;11.214;2022-09-12T08:06:04;21.40;99.90
9987;DHT22;5033;46.310;11.214;2022-09-12T08:08:32;21.50;99.90
9987;DHT22;5033;46.310;11.214;2022-09-12T08:11:00;21.40;99.90
9987;DHT22;5033;46.310;11.214;2022-09-12T08:13:28;21.30;99.90
9987;DHT22;5033;46.310;11.214;2022-09-12T08:16:00;21.10;99.90
9987;DHT22;5033;46.310;11.214;2022-09-12T08:18:29;21.10;99.90
9987;DHT22;5033;46.310;11.214;2022-09-12T08:20:58;21.10;99.90
9987;DHT22;5033;46.310;11.214;2022-09-12T08:23:26;21.30;99.90
9987;DHT22;5033;46.310;11.214;2022-09-12T08:25:57;21.60;99.90
9987;DHT22;5033;46.310;11.214;2022-09-12T08:28:26;21.70;99.90
9987;DHT22;5033;46.310;11.214;2022-09-12T08:30:58;21.80;99.90
9987;DHT22;5033;46.310;11.214;2022-09-12T08:33:25;21.80;99.90
9987;DHT22;5033;46.310;11.214;2022-09-12T08:36:02;21.80;99.90
9987;DHT22;5033;46.310;11.214;2022-09-12T08:38:31;21.90;99.90
9987;DHT22;5033;46.310;11.214;2022-09-12T08:41:03;22.20;99.90
9987;DHT22;5033;46.310;11.214;2022-09-12T08:43:49;22.30;99.90
9987;DHT22;5033;46.310;11.214;2022-09-12T08:46:22;22.30;99.90
9987;DHT22;5033;46.310;11.214;2022-09-12T08:48:51;22.10;99.90
9987;DHT22;5033;46.310;11.214;2022-09-12T08:51:19;22.20;99.90
9987;DHT22;5033;46.310;11.214;2022-09-12T08:53:49;22.10;99.90
9987;DHT22;5033;46.310;11.214;2022-09-12T08:56:16;22.00;99.90
9987;DHT22;5033;46.310;11.214;2022-09-12T08:58:44;21.90;99.90
9987;DHT22;5033;46.310;11.214;2022-09-12T09:01:21;21.80;99.90
9987;DHT22;5033;46.310;11.214;2022-09-12T09:04:20;21.70;99.90
9987;DHT22;5033;46.310;11.214;2022-09-12T09:07:12;21.90;99.90
9987;DHT22;5033;46.310;11.214;2022-09-12T09:12:47;22.30;99.90
9987;DHT22;5033;46.310;11.214;2022-09-12T09:15:37;22.50;99.90
9987;DHT22;5033;46.310;11.214;2022-09-12T09:18:14;22.40;99.90
9987;DHT22;5033;46.310;11.214;2022-09-12T09:20:48;22.50;99.90
9987;DHT22;5033;46.310;11.214;2022-09-12T09:23:21;22.50;99.90
9987;DHT22;5033;46.310;11.214;2022-09-12T09:25:56;22.40;99.90
9987;DHT22;5033;46.310;11.214;2022-09-12T09:28:29;22.80;99.90
9987;DHT22;5033;46.310;11.214;2022-09-12T09:30:58;22.90;99.90
9987;DHT22;5033;46.310;11.214;2022-09-12T09:33:27;23.00;99.90
9987;DHT22;5033;46.310;11.214;2022-09-12T09:36:04;23.20;99.90
9987;DHT22;5033;46.310;11.214;2022-09-12T09:38:40;23.30;99.90
9987;DHT22;5033;46.310;11.214;2022-09-12T09:41:33;23.40;99.90
9987;DHT22;5033;46.310;11.214;2022-09-12T09:44:02;23.60;99.90
9987;DHT22;5033;46.310;11.214;2022-09-12T09:46:29;23.90;99.90
9987;DHT22;5033;46.310;11.214;2022-09-12T09:48:59;24.00;99.90
9987;DHT22;5033;46.310;11.214;2022-09-12T09:51:33;24.00;99.90
9987;DHT22;5033;46.310;11.214;2022-09-12T09:54:02;23.90;99.90
9987;DHT22;5033;46.310;11.214;2022-09-12T09:56:34;23.70;99.90
9987;DHT22;5033;46.310;11.214;2022-09-12T09:59:09;23.60;99.90
9987;DHT22;5033;46.310;11.214;2022-09-12T10:01:43;23.60;99.90
9987;DHT22;5033;46.310;11.214;2022-09-12T10:04:17;23.70;99.90
9987;DHT22;5033;46.310;11.214;2022-09-12T10:06:45;23.80;99.90
9987;DHT22;5033;46.310;11.214;2022-09-12T10:09:22;23.80;99.90
9987;DHT22;5033;46.310;11.214;2022-09-12T10:11:51;24.00;99.90
9987;DHT22;5033;46.310;11.214;2022-09-12T10:14:39;24.40;99.90
9987;DHT22;5033;46.310;11.214;2022-09-12T10:17:26;24.60;99.90
9987;DHT22;5033;46.310;11.214;2022-09-12T10:19:54;24.70;99.90
9987;DHT22;5033;46.310;11.214;2022-09-12T10:22:23;24.40;99.90
9987;DHT22;5033;46.310;11.214;2022-09-12T10:24:52;24.20;99.90
9987;DHT22;5033;46.310;11.214;2022-09-12T10:27:23;24.30;99.90
9987;DHT22;5033;46.310;11.214;2022-09-12T10:29:54;24.40;99.90
9987;DHT22;5033;46.310;11.214;2022-09-12T10:32:25;24.20;99.90
9987;DHT22;5033;46.310;11.214;2022-09-12T10:34:57;24.10;99.90
9987;DHT22;5033;46.310;11.214;2022-09-12T10:37:29;24.10;99.90
9987;DHT22;5033;46.310;11.214;2022-09-12T10:39:58;24.20;99.90
9987;DHT22;5033;46.310;11.214;2022-09-12T10:42:45;24.20;99.90
9987;DHT22;5033;46.310;11.214;2022-09-12T10:45:28;24.40;99.90
9987;DHT22;5033;46.310;11.214;2022-09-12T10:47:56;24.40;99.90
9987;DHT22;5033;46.310;11.214;2022-09-12T10:50:29;24.50;99.90
9987;DHT22;5033;46.310;11.214;2022-09-12T10:53:13;24.50;99.90
9987;DHT22;5033;46.310;11.214;2022-09-12T10:55:45;24.50;99.90
9987;DHT22;5033;46.310;11.214;2022-09-12T10:58:39;24.60;99.90
9987;DHT22;5033;46.310;11.214;2022-09-12T11:01:15;24.80;99.90
9987;DHT22;5033;46.310;11.214;2022-09-12T11:04:08;24.90;99.90
9987;DHT22;5033;46.310;11.214;2022-09-12T11:06:44;25.00;99.90
9987;DHT22;5033;46.310;11.214;2022-09-12T11:09:20;25.00;99.90
9987;DHT22;5033;46.310;11.214;2022-09-12T11:12:01;25.10;99.90
9987;DHT22;5033;46.310;11.214;2022-09-12T11:14:43;25.20;99.90
9987;DHT22;5033;46.310;11.214;2022-09-12T11:17:21;25.20;99.90
9987;DHT22;5033;46.310;11.214;2022-09-12T11:20:02;25.30;99.90
9987;DHT22;5033;46.310;11.214;2022-09-12T11:25:39;25.20;99.90
9987;DHT22;5033;46.310;11.214;2022-09-12T11:28:27;25.30;99.90
9987;DHT22;5033;46.310;11.214;2022-09-12T11:33:54;25.40;99.90
9987;DHT22;5033;46.310;11.214;2022-09-12T11:36:32;25.40;99.90
9987;DHT22;5033;46.310;11.214;2022-09-12T11:39:11;25.40;99.90
9987;DHT22;5033;46.310;11.214;2022-09-12T11:41:41;25.50;99.90
9987;DHT22;5033;46.310;11.214;2022-09-12T11:44:14;25.50;99.90
9987;DHT22;5033;46.310;11.214;2022-09-12T11:46:44;25.50;99.90
9987;DHT22;5033;46.310;11.214;2022-09-12T11:49:27;25.60;99.90
9987;DHT22;5033;46.310;11.214;2022-09-12T11:52:00;25.70;99.90
9987;DHT22;5033;46.310;11.214;2022-09-12T11:54:32;25.60;99.90
9987;DHT22;5033;46.310;11.214;2022-09-12T11:57:07;25.90;99.90
9987;DHT22;5033;46.310;11.214;2022-09-12T11:59:43;25.90;99.90
9987;DHT22;5033;46.310;11.214;2022-09-12T12:02:21;25.80;99.90
9987;DHT22;5033;46.310;11.214;2022-09-12T12:05:01;25.60;99.90
9987;DHT22;5033;46.310;11.214;2022-09-12T12:07:37;25.60;99.90
9987;DHT22;5033;46.310;11.214;2022-09-12T12:10:06;25.80;99.90
9987;DHT22;5033;46.310;11.214;2022-09-12T12:12:47;25.80;99.90
9987;DHT22;5033;46.310;11.214;2022-09-12T12:15:15;25.80;99.90
9987;DHT22;5033;46.310;11.214;2022-09-12T12:17:48;25.70;99.90
9987;DHT22;5033;46.310;11.214;2022-09-12T12:20:26;25.70;99.90
9987;DHT22;5033;46.310;11.214;2022-09-12T12:22:54;25.80;99.90
9987;DHT22;5033;46.310;11.214;2022-09-12T12:25:24;26.00;99.90
9987;DHT22;5033;46.310;11.214;2022-09-12T12:27:55;26.00;99.90
9987;DHT22;5033;46.310;11.214;2022-09-12T12:34:03;26.10;99.90
9987;DHT22;5033;46.310;11.214;2022-09-12T12:36:39;26.00;99.90
9987;DHT22;5033;46.310;11.214;2022-09-12T12:46:00;25.60;99.90
9987;DHT22;5033;46.310;11.214;2022-09-12T12:48:31;25.50;99.90
9987;DHT22;5033;46.310;11.214;2022-09-12T12:51:26;25.70;99.90
9987;DHT22;5033;46.310;11.214;2022-09-12T12:53:55;25.80;99.90
9987;DHT22;5033;46.310;11.214;2022-09-12T12:56:34;26.00;99.90
9987;DHT22;5033;46.310;11.214;2022-09-12T12:59:12;25.90;99.90
9987;DHT22;5033;46.310;11.214;2022-09-12T13:01:44;25.80;99.90
9987;DHT22;5033;46.310;11.214;2022-09-12T13:04:15;25.80;99.90
9987;DHT22;5033;46.310;11.214;2022-09-12T13:06:46;25.80;99.90
9987;DHT22;5033;46.310;11.214;2022-09-12T13:09:24;25.90;99.90
9987;DHT22;5033;46.310;11.214;2022-09-12T13:11:59;26.00;99.90
9987;DHT22;5033;46.310;11.214;2022-09-12T13:14:48;26.30;99.90
9987;DHT22;5033;46.310;11.214;2022-09-12T13:17:23;26.20;99.90
9987;DHT22;5033;46.310;11.214;2022-09-12T13:19:53;26.20;99.90
9987;DHT22;5033;46.310;11.214;2022-09-12T13:22:38;26.20;99.90
9987;DHT22;5033;46.310;11.214;2022-09-12T13:25:19;26.20;99.90
9987;DHT22;5033;46.310;11.214;2022-09-12T13:30:43;26.20;99.90
9987;DHT22;5033;46.310;11.214;2022-09-12T13:33:20;26.20;99.90
9987;DHT22;5033;46.310;11.214;2022-09-12T13:39:01;26.50;99.90
9987;DHT22;5033;46.310;11.214;2022-09-12T13:41:43;26.80;99.90
9987;DHT22;5033;46.310;11.214;2022-09-12T13:44:17;27.10;99.90
9987;DHT22;5033;46.310;11.214;2022-09-12T13:46:44;27.10;99.90
9987;DHT22;5033;46.310;11.214;2022-09-12T13:49:18;27.10;99.90
9987;DHT22;5033;46.310;11.214;2022-09-12T13:51:55;27.00;99.90
9987;DHT22;5033;46.310;11.214;2022-09-12T13:54:26;27.20;99.90
9987;DHT22;5033;46.310;11.214;2022-09-12T13:56:53;27.20;99.90
9987;DHT22;5033;46.310;11.214;2022-09-12T13:59:20;27.10;99.90
9987;DHT22;5033;46.310;11.214;2022-09-12T14:01:48;26.70;99.90
9987;DHT22;5033;46.310;11.214;2022-09-12T14:04:17;26.60;99.90
9987;DHT22;5033;46.310;11.214;2022-09-12T14:07:09;26.50;99.90
9987;DHT22;5033;46.310;11.214;2022-09-12T14:09:41;26.40;99.90
9987;DHT22;5033;46.310;11.214;2022-09-12T14:12:16;26.20;99.90
9987;DHT22;5033;46.310;11.214;2022-09-12T14:14:49;26.10;99.90
9987;DHT22;5033;46.310;11.214;2022-09-12T14:17:17;26.00;99.90
9987;DHT22;5033;46.310;11.214;2022-09-12T14:19:45;26.10;99.90
9987;DHT22;5033;46.310;11.214;2022-09-12T14:22:13;26.00;99.90
9987;DHT22;5033;46.310;11.214;2022-09-12T14:24:45;26.10;99.90
9987;DHT22;5033;46.310;11.214;2022-09-12T14:27:17;26.10;99.90
9987;DHT22;5033;46.310;11.214;2022-09-12T14:29:46;26.00;99.90
9987;DHT22;5033;46.310;11.214;2022-09-12T14:32:21;26.00;99.90
9987;DHT22;5033;46.310;11.214;2022-09-12T14:35:12;26.00;99.90
9987;DHT22;5033;46.310;11.214;2022-09-12T14:37:44;26.00;99.90
9987;DHT22;5033;46.310;11.214;2022-09-12T14:40:17;25.90;99.90
9987;DHT22;5033;46.310;11.214;2022-09-12T14:42:45;25.80;99.90
9987;DHT22;5033;46.310;11.214;2022-09-12T14:45:16;25.80;99.90
9987;DHT22;5033;46.310;11.214;2022-09-12T14:47:48;25.90;99.90
9987;DHT22;5033;46.310;11.214;2022-09-12T14:50:17;26.10;99.90
9987;DHT22;5033;46.310;11.214;2022-09-12T14:53:01;26.20;99.90
9987;DHT22;5033;46.310;11.214;2022-09-12T14:55:32;26.10;99.90
9987;DHT22;5033;46.310;11.214;2022-09-12T14:58:14;26.10;99.90
9987;DHT22;5033;46.310;11.214;2022-09-12T15:00:52;26.20;99.90
9987;DHT22;5033;46.310;11.214;2022-09-12T15:03:25;26.10;99.90
9987;DHT22;5033;46.310;11.214;2022-09-12T15:05:52;26.10;99.90
9987;DHT22;5033;46.310;11.214;2022-09-12T15:08:19;26.10;99.90
9987;DHT22;5033;46.310;11.214;2022-09-12T15:10:48;26.20;99.90
9987;DHT22;5033;46.310;11.214;2022-09-12T15:13:18;26.00;99.90
9987;DHT22;5033;46.310;11.214;2022-09-12T15:15:47;26.10;99.90
9987;DHT22;5033;46.310;11.214;2022-09-12T15:18:15;26.20;99.90
9987;DHT22;5033;46.310;11.214;2022-09-12T15:20:45;26.20;99.90
9987;DHT22;5033;46.310;11.214;2022-09-12T15:23:34;25.80;99.90
9987;DHT22;5033;46.310;11.214;2022-09-12T15:26:04;25.40;99.90
9987;DHT22;5033;46.310;11.214;2022-09-12T15:28:32;24.90;99.90
9987;DHT22;5033;46.310;11.214;2022-09-12T15:31:04;24.60;99.90
9987;DHT22;5033;46.310;11.214;2022-09-12T15:33:32;24.30;99.90
9987;DHT22;5033;46.310;11.214;2022-09-12T15:35:59;24.10;99.90
9987;DHT22;5033;46.310;11.214;2022-09-12T15:38:26;23.90;99.90
9987;DHT22;5033;46.310;11.214;2022-09-12T15:40:53;23.80;99.90
9987;DHT22;5033;46.310;11.214;2022-09-12T15:43:22;23.60;99.90
9987;DHT22;5033;46.310;11.214;2022-09-12T15:45:50;23.60;99.90
9987;DHT22;5033;46.310;11.214;2022-09-12T15:48:18;23.60;99.90
9987;DHT22;5033;46.310;11.214;2022-09-12T15:50:45;23.60;99.90
9987;DHT22;5033;46.310;11.214;2022-09-12T15:53:14;23.50;99.90
9987;DHT22;5033;46.310;11.214;2022-09-12T15:55:41;23.60;99.90
9987;DHT22;5033;46.310;11.214;2022-09-12T15:58:09;23.60;99.90
9987;DHT22;5033;46.310;11.214;2022-09-12T16:00:37;23.60;99.90
9987;DHT22;5033;46.310;11.214;2022-09-12T16:03:04;23.50;99.90
9987;DHT22;5033;46.310;11.214;2022-09-12T16:05:32;23.40;99.90
9987;DHT22;5033;46.310;11.214;2022-09-12T16:07:59;23.40;99.90
9987;DHT22;5033;46.310;11.214;2022-09-12T16:10:28;23.30;99.90
9987;DHT22;5033;46.310;11.214;2022-09-12T16:12:56;23.20;99.90
9987;DHT22;5033;46.310;11.214;2022-09-12T16:15:24;23.20;99.90
9987;DHT22;5033;46.310;11.214;2022-09-12T16:17:53;23.20;99.90
9987;DHT22;5033;46.310;11.214;2022-09-12T16:20:20;23.20;99.90
9987;DHT22;5033;46.310;11.214;2022-09-12T16:22:49;23.20;99.90
9987;DHT22;5033;46.310;11.214;2022-09-12T16:25:16;23.10;99.90
9987;DHT22;5033;46.310;11.214;2022-09-12T16:27:43;23.00;99.90
9987;DHT22;5033;46.310;11.214;2022-09-12T16:30:11;22.90;99.90
9987;DHT22;5033;46.310;11.214;2022-09-12T16:32:39;22.80;99.90
9987;DHT22;5033;46.310;11.214;2022-09-12T16:35:08;22.80;99.90
9987;DHT22;5033;46.310;11.214;2022-09-12T16:37:35;22.90;99.90